MMPR/PVR METAR and TAF weather

Enter ICAO airport designator
Station Type Date Time Source
MMPR METAR 2021/04/13 03:58 UTC NOAA

MMPR 130358Z RTD 00000KT 15SM SKC 23/20 A2986 RMK MSGTX MMMX


Station Type Date Time Source
MMPR Decoded METAR 2021/04/13 03:58 UTC NOAA

Puerto Vallarta / Lic, Mexico (MMPR) 20-41N 105-15W
Apr 12, 2021 - 11:58 PM EDT / 2021.04.13 0358 UTC
Wind: Calm:0
Visibility: 15 mile(s):0
Sky conditions: clear
Temperature: 73 F (23 C)
Dew Point: 68 F (20 C)
Relative Humidity: 83%
Pressure (altimeter): 29.86 in. Hg (1011 hPa)
ob: MMPR 130358Z RTD 00000KT 15SM SKC 23/20 A2986 RMK MSGTX MMMX
cycle: 4

Station Type Date Time Source
MMPR TAF 2021/04/13 06:54 UTC NOAA

TAF MMPR 130342Z 1306/1412 00000KT P6SM SCT020 TX28/1320Z TN20/1312Z
FM131800 23012KT P6SM SCT250
FM140300 23005KT P6SM SCT250

Example: see airport list